createdAt,value
2018-02-13T00:02:14.352Z,85.6
2018-02-13T00:07:14.242Z,85.1
2018-02-13T00:12:14.311Z,84.7
2018-02-13T00:17:14.234Z,86.1
2018-02-13T00:22:14.145Z,85.4
2018-02-13T00:27:14.277Z,85.5
2018-02-13T00:32:14.343Z,85.4
2018-02-13T00:37:14.281Z,85.5
2018-02-13T00:42:15.338Z,85.4
2018-02-13T00:47:14.307Z,85.3
2018-02-13T00:52:14.145Z,86.1
2018-02-13T00:57:14.143Z,86
2018-02-13T01:02:14.145Z,85.8
2018-02-13T01:07:14.356Z,86
2018-02-13T01:12:14.305Z,86.1
2018-02-13T01:17:14.316Z,86.5
2018-02-13T01:22:14.264Z,85.9
2018-02-13T01:27:14.379Z,86.1
2018-02-13T01:32:14.312Z,86.3
2018-02-13T01:37:14.375Z,85.9
2018-02-13T01:42:14.407Z,86
2018-02-13T01:47:14.618Z,86
2018-02-13T01:52:14.625Z,86.1
2018-02-13T01:57:14.602Z,86.2
2018-02-13T02:02:14.637Z,87
2018-02-13T02:07:14.563Z,87
2018-02-13T02:12:14.586Z,87
2018-02-13T02:17:14.607Z,87.5
2018-02-13T02:22:14.553Z,87.9
2018-02-13T02:27:14.588Z,88.1
2018-02-13T02:32:14.442Z,88.3
2018-02-13T02:37:14.719Z,88.5
2018-02-13T02:42:14.862Z,87.8
2018-02-13T02:47:14.830Z,88.2
2018-02-13T02:52:14.668Z,87.9
2018-02-13T02:57:20.228Z,87.6
2018-02-13T03:02:25.179Z,87.8
2018-02-13T03:07:20.093Z,87.7
2018-02-13T03:12:19.876Z,88
2018-02-13T03:17:20.148Z,88.2
2018-02-13T03:22:20.183Z,88.6
2018-02-13T03:27:20.126Z,87.6
2018-02-13T03:32:20.245Z,87.9
2018-02-13T03:37:20.298Z,88.3
2018-02-13T03:42:20.227Z,88
2018-02-13T03:47:20.262Z,87.4
2018-02-13T03:52:19.998Z,87.9
2018-02-13T03:57:20.233Z,87.5
2018-02-13T04:02:20.242Z,87.5
2018-02-13T04:07:20.173Z,87.3
2018-02-13T04:12:20.207Z,87.1
2018-02-13T04:17:20.038Z,87.9
2018-02-13T04:22:20.276Z,87.6
2018-02-13T04:27:20.228Z,88
2018-02-13T04:32:20.267Z,88.2
2018-02-13T04:37:20.261Z,88.9
2018-02-13T04:42:20.054Z,88.8
2018-02-13T04:47:20.054Z,89
2018-02-13T04:52:20.074Z,88
2018-02-13T04:57:20.077Z,88.6
2018-02-13T05:02:20.078Z,87.9
2018-02-13T05:07:20.470Z,88.6
2018-02-13T05:12:20.076Z,88.4
2018-02-13T05:17:20.246Z,88.7
2018-02-13T05:22:20.282Z,89
2018-02-13T05:27:20.298Z,88.8
2018-02-13T05:32:20.338Z,88.7
2018-02-13T05:37:20.080Z,88.5
2018-02-13T05:42:20.092Z,88.4
2018-02-13T05:47:20.325Z,87.6
2018-02-13T05:52:20.264Z,87.6
2018-02-13T05:57:20.298Z,87
2018-02-13T06:02:20.312Z,87.2
2018-02-13T06:07:20.272Z,87
2018-02-13T06:12:20.134Z,86.2
2018-02-13T06:17:20.362Z,85.5
2018-02-13T06:22:20.136Z,86
2018-02-13T06:27:20.308Z,85.4
2018-02-13T06:32:20.151Z,85.7
2018-02-13T06:37:20.371Z,85.7
2018-02-13T06:42:20.399Z,85.1
2018-02-13T06:47:20.425Z,84.9
2018-02-13T06:52:20.396Z,85.3
2018-02-13T06:57:20.382Z,85.3
2018-02-13T07:02:20.424Z,85.5
2018-02-13T07:07:20.598Z,86.8
2018-02-13T07:12:20.485Z,85.7
2018-02-13T07:17:20.499Z,84.8
2018-02-13T07:22:20.639Z,85.4
2018-02-13T07:27:20.768Z,84.6
2018-02-13T07:32:20.648Z,84.1
2018-02-13T07:37:20.674Z,83.3
2018-02-13T07:42:20.721Z,83.5
2018-02-13T07:47:20.514Z,83.3
2018-02-13T07:52:24.765Z,82.9
2018-02-13T07:57:30.017Z,82.4
2018-02-13T08:02:24.867Z,81.2
2018-02-13T08:07:24.750Z,81.3
2018-02-13T08:12:24.869Z,81.1
2018-02-13T08:17:24.950Z,81.2
2018-02-13T08:22:24.984Z,82.3
2018-02-13T08:27:25.005Z,81.7
2018-02-13T08:32:24.915Z,80.2
2018-02-13T08:37:24.749Z,80.9
2018-02-13T08:42:25.020Z,80.5
2018-02-13T08:47:24.954Z,80.7
2018-02-13T08:52:25.011Z,80.2
2018-02-13T08:57:24.978Z,79.3
2018-02-13T09:02:25.034Z,78.9
2018-02-13T09:07:24.990Z,78.3
2018-02-13T09:12:25.008Z,78.3
2018-02-13T09:17:25.051Z,78.8
2018-02-13T09:22:25.040Z,78.4
2018-02-13T09:27:24.968Z,75.1
2018-02-13T09:32:25.065Z,74
2018-02-13T09:37:24.952Z,73.8
2018-02-13T09:42:25.021Z,73.1
2018-02-13T09:47:25.035Z,73.5
2018-02-13T09:52:25.084Z,70.7
2018-02-13T09:57:24.997Z,70.4
2018-02-13T10:02:24.951Z,69
2018-02-13T10:07:25.076Z,68.9
2018-02-13T10:12:24.964Z,68
2018-02-13T10:17:25.030Z,68.8
2018-02-13T10:22:25.006Z,69
2018-02-13T10:27:24.854Z,67.7
2018-02-13T10:32:24.989Z,67
2018-02-13T10:37:24.876Z,67
2018-02-13T10:42:25.245Z,66.9
2018-02-13T10:47:25.249Z,65.1
2018-02-13T10:52:25.456Z,66
2018-02-13T10:57:25.457Z,65
2018-02-13T11:02:25.448Z,66.3
2018-02-13T11:07:25.394Z,66.8
2018-02-13T11:12:25.614Z,65.3
2018-02-13T11:17:25.650Z,63.5
2018-02-13T11:22:25.702Z,63.6
2018-02-13T11:27:25.422Z,62.4
2018-02-13T11:32:25.948Z,63.3
2018-02-13T11:37:25.771Z,62.4
2018-02-13T11:42:25.887Z,62.2
2018-02-13T11:47:26.077Z,62.5
2018-02-13T11:52:26.155Z,62.3
2018-02-13T11:57:26.008Z,62.9
2018-02-13T12:02:25.887Z,58.3
2018-02-13T12:07:26.015Z,58.2
2018-02-13T12:12:25.848Z,58.3
2018-02-13T12:17:26.035Z,58.6
2018-02-13T12:22:26.096Z,57.7
2018-02-13T12:27:26.236Z,59.5
2018-02-13T12:32:26.366Z,59.1
2018-02-13T12:37:25.910Z,57.8
2018-02-13T12:42:27.040Z,58.3
2018-02-13T12:47:32.261Z,56.8
2018-02-13T12:52:27.189Z,56.3
2018-02-13T12:57:27.204Z,57.3
2018-02-13T13:02:27.283Z,57.5
2018-02-13T13:07:27.187Z,58.8
2018-02-13T13:12:27.041Z,58.5
2018-02-13T13:17:27.246Z,59
2018-02-13T13:22:27.188Z,58.1
2018-02-13T13:27:27.233Z,60.7
2018-02-13T13:32:27.297Z,60.5
2018-02-13T13:37:27.291Z,61.1
2018-02-13T13:42:27.250Z,60.7
2018-02-13T13:47:27.265Z,63.1
2018-02-13T13:52:27.193Z,61.9
2018-02-13T13:57:27.226Z,62.7
2018-02-13T14:02:27.277Z,63.5
2018-02-13T14:07:27.072Z,61.5
2018-02-13T14:12:27.096Z,61.8
2018-02-13T14:17:27.272Z,58.8
2018-02-13T14:22:27.296Z,60.5
2018-02-13T14:27:27.084Z,58.4
2018-02-13T14:32:27.479Z,57.4
2018-02-13T14:37:27.243Z,57.7
2018-02-13T14:42:27.410Z,58.6
2018-02-13T14:47:27.426Z,59.3
2018-02-13T14:52:27.396Z,57.6
2018-02-13T14:57:27.250Z,55.9
2018-02-13T15:02:27.470Z,54.4
2018-02-13T15:07:27.212Z,57.1
2018-02-13T15:12:27.419Z,58.5
2018-02-13T15:17:27.457Z,57
2018-02-13T15:22:27.507Z,57.5
2018-02-13T15:27:27.433Z,56.6
2018-02-13T15:32:27.465Z,56.3
2018-02-13T15:37:27.242Z,57.3
2018-02-13T15:42:27.267Z,57.5
2018-02-13T15:47:27.280Z,59
2018-02-13T15:52:27.288Z,59.7
2018-02-13T15:57:27.415Z,60
2018-02-13T16:02:27.463Z,61.1
2018-02-13T16:07:27.422Z,60.5
2018-02-13T16:12:27.418Z,58.9
2018-02-13T16:17:27.462Z,59.2
2018-02-13T16:22:27.505Z,60.8
2018-02-13T16:27:27.308Z,62.6
2018-02-13T16:32:27.518Z,63.2
2018-02-13T16:37:27.522Z,63.5
2018-02-13T16:42:27.303Z,64.4
2018-02-13T16:47:27.669Z,65
2018-02-13T16:52:27.305Z,64.2
2018-02-13T16:57:27.312Z,65.3
2018-02-13T17:02:27.306Z,66.4
2018-02-13T17:07:27.328Z,66.8
2018-02-13T17:12:27.297Z,67.1
2018-02-13T17:17:27.312Z,66.6
2018-02-13T17:22:27.337Z,67.9
2018-02-13T17:27:27.308Z,69.3
2018-02-13T17:32:27.324Z,68.4
2018-02-13T17:37:30.004Z,68.1
2018-02-13T17:42:35.082Z,68.5
2018-02-13T17:47:29.965Z,70.3
2018-02-13T17:52:29.998Z,71.1
2018-02-13T17:57:29.995Z,69.9
2018-02-13T18:02:30.027Z,70.8
2018-02-13T18:07:29.929Z,70.4
2018-02-13T18:12:30.000Z,70.6
2018-02-13T18:17:30.001Z,72.2
2018-02-13T18:22:30.011Z,72.8
2018-02-13T18:27:30.001Z,71.6
2018-02-13T18:32:29.981Z,72.5
2018-02-13T18:37:30.152Z,72.6
2018-02-13T18:42:30.179Z,73.5
2018-02-13T18:47:30.236Z,73.8
2018-02-13T18:57:30.184Z,75.2
2018-02-13T19:02:30.265Z,74.5
2018-02-13T19:07:30.266Z,75.4
2018-02-13T19:12:30.020Z,75.9
2018-02-13T19:17:30.223Z,75.9
2018-02-13T19:22:30.148Z,76.1
2018-02-13T19:27:30.180Z,76.4
2018-02-13T19:32:30.211Z,76.9
2018-02-13T19:37:30.038Z,77.2
2018-02-13T19:42:30.208Z,76.5
2018-02-13T19:47:30.229Z,76.8
2018-02-13T19:52:30.281Z,77.1
2018-02-13T19:57:30.170Z,77
2018-02-13T20:02:31.334Z,77.5
2018-02-13T20:07:30.367Z,78.2
2018-02-13T20:12:30.374Z,77.9
2018-02-13T20:17:30.188Z,79
2018-02-13T20:22:30.176Z,78.7
2018-02-13T20:27:30.340Z,79
2018-02-13T20:32:30.163Z,79.5
2018-02-13T20:37:30.328Z,79.3
2018-02-13T20:42:30.163Z,79
2018-02-13T20:47:30.169Z,79.6
2018-02-13T20:52:30.164Z,79.6
2018-02-13T20:57:30.181Z,79.9
2018-02-13T21:02:30.436Z,80.1
2018-02-13T21:07:30.525Z,80.6
2018-02-13T21:12:30.382Z,79.9
2018-02-13T21:17:30.594Z,80.7
2018-02-13T21:22:30.634Z,80.8
2018-02-13T21:27:30.402Z,80.4
2018-02-13T21:32:30.602Z,79.9
2018-02-13T21:37:30.538Z,80.1
2018-02-13T21:42:30.386Z,80.8
2018-02-13T21:47:30.582Z,80.8
2018-02-13T21:52:30.402Z,79.8
2018-02-13T21:57:30.387Z,80.3
2018-02-13T22:02:30.425Z,80.4
2018-02-13T22:07:30.638Z,80.8
2018-02-13T22:12:30.545Z,81.2
2018-02-13T22:17:30.424Z,81.2
2018-02-13T22:22:33.473Z,82.2
2018-02-13T22:27:38.540Z,81.3
2018-02-13T22:32:33.665Z,81.7
2018-02-13T22:37:33.578Z,81.9
2018-02-13T22:42:33.618Z,82.3
2018-02-13T22:47:33.663Z,82
2018-02-13T22:52:33.684Z,82.5
2018-02-13T22:57:33.477Z,83
2018-02-13T23:02:33.690Z,83.8
2018-02-13T23:07:33.689Z,82.7
2018-02-13T23:12:33.727Z,82.7
2018-02-13T23:17:33.633Z,82.5
2018-02-13T23:22:33.687Z,83.2
2018-02-13T23:27:33.726Z,83.1
2018-02-13T23:32:33.752Z,83
2018-02-13T23:37:33.681Z,83.6
2018-02-13T23:42:33.565Z,83.1
2018-02-13T23:47:33.778Z,84
2018-02-13T23:52:33.676Z,84.2
2018-02-13T23:57:33.734Z,84.1
